Time;durP1;ratioP1;P1;durP2;ratioP2;P2;SDS_P1;SDS_P2;PMS_P1;PMS_P2;Temp;Humidity;BMP_temperature;BMP_pressure;BME280_temperature;BME280_humidity;BME280_pressure;Samples;Min_cycle;Max_cycle;Signal;HPM_P1;HPM_P2
2021/10/08 00:01:57;;;;;;;0.37;0.30;;;;;;;7.32;100.00;101530.56;5051917;28;20822;-52
2021/10/08 00:04:24;;;;;;;0.30;0.20;;;;;;;7.24;100.00;101537.56;5051984;28;20446;-51
2021/10/08 00:06:52;;;;;;;0.30;0.20;;;;;;;7.31;100.00;101536.72;5051906;28;20447;-52
2021/10/08 00:09:19;;;;;;;0.30;0.20;;;;;;;7.28;100.00;101529.66;5051764;28;20446;-52
2021/10/08 00:11:46;;;;;;;0.30;0.20;;;;;;;7.23;100.00;101530.50;5051729;28;20902;-52
2021/10/08 00:14:12;;;;;;;0.30;0.20;;;;;;;7.26;100.00;101536.69;5051531;28;20450;-52
2021/10/08 00:16:39;;;;;;;0.30;0.20;;;;;;;7.29;100.00;101535.84;5043078;28;20957;-52
2021/10/08 00:19:07;;;;;;;0.30;0.20;;;;;;;7.24;100.00;101537.56;5048780;28;20486;-51
2021/10/08 00:21:33;;;;;;;0.30;0.20;;;;;;;7.12;100.00;101538.38;5051673;28;20520;-52
2021/10/08 00:24:00;;;;;;;0.30;0.20;;;;;;;7.25;100.00;101540.19;5051550;28;20939;-51
2021/10/08 00:26:27;;;;;;;0.40;0.40;;;;;;;6.97;100.00;101538.28;5051667;28;20511;-51
2021/10/08 00:28:54;;;;;;;0.83;0.83;;;;;;;7.23;100.00;101535.78;5051575;28;20479;-52
2021/10/08 00:31:21;;;;;;;0.30;0.20;;;;;;;7.11;100.00;101534.84;5052012;28;20520;-51
2021/10/08 00:33:48;;;;;;;0.30;0.20;;;;;;;7.34;100.00;101545.53;5051526;28;20447;-52
2021/10/08 00:36:15;;;;;;;0.53;0.53;;;;;;;7.09;100.00;101544.53;5051575;28;20500;-52
2021/10/08 00:38:42;;;;;;;0.30;0.20;;;;;;;7.19;100.00;101544.59;5051330;28;20548;-51
2021/10/08 00:41:10;;;;;;;0.30;0.20;;;;;;;7.14;100.00;101552.50;5051254;28;20459;-52
2021/10/08 00:43:37;;;;;;;0.30;0.20;;;;;;;7.03;100.00;101540.97;5062476;22;20513;-51
2021/10/08 00:46:04;;;;;;;0.30;0.20;;;;;;;6.97;100.00;101540.91;5050768;28;20481;-51
2021/10/08 00:48:31;;;;;;;0.30;0.20;;;;;;;6.95;100.00;101548.84;5050085;28;20469;-50
2021/10/08 00:50:58;;;;;;;0.30;0.20;;;;;;;6.88;100.00;101543.53;5051597;28;20497;-50
2021/10/08 00:53:25;;;;;;;0.30;0.20;;;;;;;6.95;100.00;101540.91;5054487;28;20498;-51
2021/10/08 00:55:52;;;;;;;0.30;0.20;;;;;;;6.64;100.00;101537.19;5055068;28;20967;-51
2021/10/08 00:58:21;;;;;;;0.40;0.40;;;;;;;6.67;100.00;101538.97;5054796;28;20494;-51
2021/10/08 01:00:51;;;;;;;1.07;1.03;;;;;;;6.80;100.00;101541.69;5055027;28;20788;-51
2021/10/08 01:03:20;;;;;;;0.30;0.20;;;;;;;6.86;100.00;101540.88;5029445;28;20466;-51
2021/10/08 01:05:47;;;;;;;0.30;0.20;;;;;;;6.87;100.00;101542.66;5054727;28;20446;-52
2021/10/08 01:08:14;;;;;;;0.30;0.20;;;;;;;6.93;100.00;101541.78;5054771;28;20474;-51
2021/10/08 01:10:43;;;;;;;5.63;0.90;;;;;;;6.64;100.00;101545.09;5054845;28;20444;-51
2021/10/08 01:13:11;;;;;;;0.30;0.20;;;;;;;6.72;100.00;101545.19;5054670;28;21003;-51
2021/10/08 01:15:39;;;;;;;0.30;0.20;;;;;;;6.71;100.00;101548.66;5054373;28;20455;-51
2021/10/08 01:18:06;;;;;;;0.60;0.60;;;;;;;6.66;100.00;101538.06;5043111;28;20529;-50
2021/10/08 01:20:34;;;;;;;0.40;0.30;;;;;;;6.67;100.00;101536.31;5054324;28;20493;-51
2021/10/08 01:23:01;;;;;;;2.67;2.47;;;;;;;6.48;100.00;101554.66;5054673;28;20500;-51
2021/10/08 01:25:30;;;;;;;0.30;0.20;;;;;;;6.49;100.00;101542.34;5054329;28;20451;-51
2021/10/08 01:27:58;;;;;;;0.30;0.20;;;;;;;6.43;100.00;101547.56;5054859;28;20471;-51
2021/10/08 01:30:26;;;;;;;0.30;0.20;;;;;;;6.38;100.00;101541.38;5054266;28;20459;-51
2021/10/08 01:32:53;;;;;;;0.30;0.20;;;;;;;6.46;100.00;101550.25;5054281;28;20505;-51
2021/10/08 01:35:21;;;;;;;0.30;0.20;;;;;;;6.46;100.00;101545.84;5054201;28;20451;-51
2021/10/08 01:37:48;;;;;;;0.30;0.20;;;;;;;6.49;100.00;101551.16;5054414;28;20483;-50
2021/10/08 01:40:16;;;;;;;0.30;0.20;;;;;;;6.44;100.00;101546.69;5054700;28;20450;-50
2021/10/08 01:42:44;;;;;;;0.30;0.20;;;;;;;6.38;100.00;101549.28;5054554;28;20498;-50
2021/10/08 01:45:13;;;;;;;0.30;0.20;;;;;;;6.35;100.00;101536.06;5054678;28;20823;-50
2021/10/08 01:47:40;;;;;;;0.33;0.20;;;;;;;6.38;100.00;101541.38;5050900;28;20537;-50
2021/10/08 01:50:08;;;;;;;0.30;0.20;;;;;;;6.36;100.00;101544.00;5054038;28;21007;-51
2021/10/08 01:52:35;;;;;;;0.30;0.20;;;;;;;6.10;100.00;101538.47;5054085;28;20573;-51
2021/10/08 01:55:02;;;;;;;0.30;0.20;;;;;;;6.29;100.00;101542.16;5053939;28;20479;-50
2021/10/08 01:57:29;;;;;;;0.30;0.20;;;;;;;6.34;100.00;101545.75;5053966;28;20479;-51
2021/10/08 01:59:56;;;;;;;0.40;0.30;;;;;;;6.47;100.00;101544.09;5053679;28;20451;-51
2021/10/08 02:02:23;;;;;;;0.40;0.30;;;;;;;6.31;100.00;101539.56;5054022;28;20497;-51
2021/10/08 02:04:50;;;;;;;0.53;0.53;;;;;;;6.15;100.00;101543.78;5052625;28;20814;-51
2021/10/08 02:07:17;;;;;;;0.30;0.20;;;;;;;6.18;100.00;101538.56;5053624;28;20451;-51
2021/10/08 02:09:44;;;;;;;0.30;0.20;;;;;;;6.28;100.00;101539.50;5053581;28;20438;-51
2021/10/08 02:12:11;;;;;;;0.40;0.30;;;;;;;6.20;100.00;101536.81;5037392;28;20872;-51
2021/10/08 02:14:38;;;;;;;0.30;0.20;;;;;;;6.23;100.00;101539.47;5032543;28;20889;-51
2021/10/08 02:17:05;;;;;;;0.30;0.20;;;;;;;6.15;100.00;101531.47;5041261;28;20490;-51
2021/10/08 02:19:32;;;;;;;1.03;1.03;;;;;;;6.15;100.00;101526.19;5053529;28;20540;-51
2021/10/08 02:22:01;;;;;;;0.30;0.20;;;;;;;6.23;100.00;101532.44;5053456;28;20508;-51
2021/10/08 02:24:29;;;;;;;1.70;0.57;;;;;;;6.13;100.00;101538.50;5053230;28;21008;-50
2021/10/08 02:26:57;;;;;;;0.43;0.40;;;;;;;6.04;100.00;101533.16;5053129;28;20971;-50
2021/10/08 02:29:25;;;;;;;0.30;0.20;;;;;;;5.96;100.00;101537.44;5053184;28;20478;-51
2021/10/08 02:31:53;;;;;;;0.30;0.20;;;;;;;6.12;100.00;101527.94;5053032;28;20483;-51
2021/10/08 02:34:20;;;;;;;0.30;0.20;;;;;;;6.02;100.00;101532.22;5053092;28;20557;-51
2021/10/08 02:36:47;;;;;;;0.30;0.20;;;;;;;6.04;100.00;101526.97;5053026;28;20947;-51
2021/10/08 02:39:14;;;;;;;0.30;0.20;;;;;;;6.16;100.00;101527.06;5053040;28;20635;-51
2021/10/08 02:41:41;;;;;;;0.30;0.20;;;;;;;6.00;100.00;101527.81;5052861;28;20451;-51
2021/10/08 02:44:08;;;;;;;0.30;0.20;;;;;;;6.06;100.00;101534.03;5052865;28;21060;-51
2021/10/08 02:46:35;;;;;;;0.30;0.20;;;;;;;6.02;100.00;101532.22;5049751;28;20544;-51
2021/10/08 02:49:02;;;;;;;0.30;0.20;;;;;;;5.96;100.00;101526.00;5052874;28;20819;-51
2021/10/08 02:51:33;;;;;;;1.30;1.20;;;;;;;6.00;100.00;101533.06;5052866;28;20474;-51
2021/10/08 02:54:01;;;;;;;0.40;0.40;;;;;;;6.00;100.00;101527.81;5052783;28;21031;-51
2021/10/08 02:56:28;;;;;;;0.30;0.20;;;;;;;5.89;100.00;101530.28;5052550;28;20509;-51
2021/10/08 02:58:55;;;;;;;0.30;0.20;;;;;;;5.84;100.00;101524.97;5052723;28;20491;-51
2021/10/08 03:01:22;;;;;;;0.30;0.20;;;;;;;5.99;100.00;101534.84;5052616;28;20490;-51
2021/10/08 03:03:49;;;;;;;0.30;0.20;;;;;;;5.73;100.00;101531.88;5052530;28;20474;-51
2021/10/08 03:06:16;;;;;;;0.40;0.30;;;;;;;5.77;100.00;101531.06;5052570;28;20451;-51
2021/10/08 03:08:45;;;;;;;0.43;0.37;;;;;;;5.80;100.00;101533.72;5053116;28;20446;-51
2021/10/08 03:11:12;;;;;;;0.30;0.20;;;;;;;5.75;100.00;101540.69;5052738;28;20861;-51
2021/10/08 03:13:39;;;;;;;0.30;0.20;;;;;;;5.73;100.00;101539.78;5052688;28;20525;-51
2021/10/08 03:16:06;;;;;;;0.30;0.20;;;;;;;5.70;100.00;101538.88;5047894;28;20880;-51
2021/10/08 03:18:33;;;;;;;0.40;0.40;;;;;;;5.73;100.00;101536.28;5043663;28;20490;-51
2021/10/08 03:21:00;;;;;;;0.30;0.20;;;;;;;5.77;100.00;101532.81;5052314;28;20486;-51
2021/10/08 03:23:27;;;;;;;0.30;0.20;;;;;;;5.81;100.00;101542.53;5052212;28;20502;-51
2021/10/08 03:25:54;;;;;;;0.30;0.20;;;;;;;5.77;100.00;101538.09;5052224;28;20951;-51
2021/10/08 03:28:21;;;;;;;0.30;0.20;;;;;;;5.65;100.00;101531.81;5052337;28;20861;-51
2021/10/08 03:30:48;;;;;;;0.30;0.20;;;;;;;5.72;100.00;101534.50;5052340;28;20500;-51
2021/10/08 03:33:15;;;;;;;0.30;0.20;;;;;;;5.75;100.00;101538.06;5052304;28;20544;-51
2021/10/08 03:35:43;;;;;;;0.30;0.20;;;;;;;5.78;100.00;101546.03;5025843;28;20485;-57
2021/10/08 03:38:22;;;;;;;0.30;0.20;;;;;;;5.78;100.00;101537.22;5052155;28;20490;-50
2021/10/08 03:41:13;;;;;;;0.30;0.20;;;;;;;5.74;100.00;101536.28;5052215;28;20504;-51
2021/10/08 03:43:37;;;;;;;0.30;0.20;;;;;;;5.75;100.00;101537.16;5052029;28;20490;-51
2021/10/08 03:46:08;;;;;;;0.30;0.20;;;;;;;5.59;100.00;101538.75;5051092;28;20504;-51
2021/10/08 03:51:29;;;;;;;0.30;0.20;;;;;;;5.67;100.00;101552.03;5052125;28;20508;-51
2021/10/08 03:53:56;;;;;;;0.30;0.20;;;;;;;5.58;100.00;101548.41;5052021;28;20505;-51
2021/10/08 03:56:27;;;;;;;0.30;0.20;;;;;;;5.69;100.00;101543.28;5052008;28;20451;-51
2021/10/08 03:58:55;;;;;;;0.30;0.10;;;;;;;5.51;100.00;101545.69;5051818;28;20529;-50
2021/10/08 04:01:23;;;;;;;0.30;0.20;;;;;;;5.61;100.00;101550.19;5051989;28;20451;-51
2021/10/08 04:03:50;;;;;;;0.30;0.20;;;;;;;5.43;100.00;101544.72;5051885;28;20561;-50
2021/10/08 04:06:17;;;;;;;0.30;0.20;;;;;;;5.62;100.00;101549.38;5052008;28;20458;-51
2021/10/08 04:08:45;;;;;;;0.30;0.20;;;;;;;5.68;100.00;101548.53;5052075;28;20446;-50
2021/10/08 04:11:13;;;;;;;0.30;0.20;;;;;;;5.73;100.00;101550.34;5051602;28;20537;-51
2021/10/08 04:13:39;;;;;;;0.30;0.20;;;;;;;5.60;100.00;101551.06;5051817;28;20837;-51
2021/10/08 04:16:06;;;;;;;0.30;0.20;;;;;;;6.06;100.00;101560.44;5047488;28;20455;-51
2021/10/08 04:18:33;;;;;;;0.30;0.20;;;;;;;6.40;100.00;101563.38;5044132;28;21011;-51
2021/10/08 04:21:00;;;;;;;0.40;0.40;;;;;;;6.13;100.00;101561.38;5051645;28;20490;-51
2021/10/08 04:23:27;;;;;;;2.10;1.03;;;;;;;6.01;100.00;101575.31;5051809;28;20467;-51
2021/10/08 04:25:54;;;;;;;0.30;0.20;;;;;;;5.78;100.00;101567.13;5051630;28;20450;-51
2021/10/08 04:28:21;;;;;;;0.50;0.50;;;;;;;5.67;100.00;101568.75;5054765;28;20442;-51
2021/10/08 04:30:48;;;;;;;0.30;0.20;;;;;;;5.80;100.00;101573.31;5055419;28;20881;-51
2021/10/08 04:33:17;;;;;;;0.30;0.20;;;;;;;5.58;100.00;101573.91;5055398;28;20467;-51
2021/10/08 04:35:45;;;;;;;0.30;0.20;;;;;;;5.58;100.00;101568.63;5055572;28;20450;-51
2021/10/08 04:38:12;;;;;;;0.30;0.20;;;;;;;5.55;100.00;101566.84;5055174;28;20508;-52
2021/10/08 04:40:39;;;;;;;0.30;0.20;;;;;;;5.53;100.00;101565.06;5029737;28;20446;-51
2021/10/08 04:43:06;;;;;;;0.30;0.20;;;;;;;5.46;100.00;101560.56;5055141;28;20528;-51
2021/10/08 04:45:35;;;;;;;0.30;0.20;;;;;;;5.42;100.00;101564.91;5055146;28;20721;-50
2021/10/08 04:48:03;;;;;;;0.30;0.20;;;;;;;5.43;100.00;101561.41;5052231;28;20454;-51
2021/10/08 04:50:30;;;;;;;0.30;0.20;;;;;;;5.48;100.00;101565.00;5055042;28;20447;-50
2021/10/08 04:52:57;;;;;;;0.30;0.20;;;;;;;5.47;100.00;101568.50;5054835;28;20513;-51
2021/10/08 04:55:24;;;;;;;0.30;0.20;;;;;;;5.42;100.00;101567.56;5055276;28;20458;-50
2021/10/08 04:57:51;;;;;;;0.30;0.20;;;;;;;5.35;100.00;101577.16;5054815;28;20489;-50
2021/10/08 05:00:18;;;;;;;0.30;0.30;;;;;;;5.49;100.00;101574.69;5054883;28;21064;-51
2021/10/08 05:02:45;;;;;;;2.10;1.10;;;;;;;5.44;100.00;101576.38;5054661;28;20474;-50
2021/10/08 05:05:12;;;;;;;0.30;0.30;;;;;;;5.49;100.00;101577.34;5054859;28;20507;-51
2021/10/08 05:07:39;;;;;;;0.30;0.20;;;;;;;5.44;100.00;101573.72;5054450;28;20504;-50
2021/10/08 05:10:06;;;;;;;0.30;0.20;;;;;;;5.62;100.00;101581.91;5054918;28;20473;-51
2021/10/08 05:12:33;;;;;;;0.73;0.73;;;;;;;5.60;100.00;101577.44;5054452;28;20880;-51
2021/10/08 05:15:00;;;;;;;0.67;0.67;;;;;;;5.50;100.00;101580.84;5054637;28;20483;-50
2021/10/08 05:17:27;;;;;;;0.30;0.20;;;;;;;5.47;100.00;101571.13;5041179;28;20459;-50
2021/10/08 05:19:53;;;;;;;2.93;2.33;;;;;;;5.58;100.00;101564.25;5054495;28;21129;-51
2021/10/08 05:22:20;;;;;;;0.30;0.20;;;;;;;5.35;100.00;101576.25;5054325;28;20482;-50
2021/10/08 05:24:47;;;;;;;0.30;0.20;;;;;;;5.35;100.00;101568.34;5054599;28;20532;-50
2021/10/08 05:27:14;;;;;;;0.30;0.20;;;;;;;5.35;100.00;101568.34;5054175;28;20905;-50
2021/10/08 05:29:41;;;;;;;0.30;0.20;;;;;;;5.29;100.00;101568.25;5054420;28;20442;-50
2021/10/08 05:32:08;;;;;;;0.30;0.20;;;;;;;5.29;100.00;101573.53;5054275;28;20482;-50
2021/10/08 05:34:37;;;;;;;0.30;0.20;;;;;;;5.39;100.00;101569.28;5054124;28;20467;-51
2021/10/08 05:37:04;;;;;;;1.50;1.50;;;;;;;5.29;100.00;101573.53;5054359;28;20481;-50
2021/10/08 05:39:31;;;;;;;1.03;0.60;;;;;;;5.29;100.00;101577.03;5053989;28;20570;-51
2021/10/08 05:41:58;;;;;;;0.30;0.20;;;;;;;5.24;100.00;101581.38;5054012;28;20451;-51
2021/10/08 05:44:25;;;;;;;0.30;0.20;;;;;;;5.23;100.00;101568.19;5053968;28;20506;-50
2021/10/08 05:46:54;;;;;;;0.30;0.20;;;;;;;5.26;100.00;101581.41;5051604;28;20932;-50
2021/10/08 05:49:22;;;;;;;0.30;0.20;;;;;;;5.29;100.00;101578.81;5053812;28;20447;-51
2021/10/08 05:51:49;;;;;;;0.30;0.20;;;;;;;5.34;100.00;101579.75;5053840;28;20509;-50
2021/10/08 05:54:16;;;;;;;0.30;0.20;;;;;;;5.35;100.00;101581.53;5053839;28;20521;-51
2021/10/08 05:56:43;;;;;;;0.30;0.20;;;;;;;5.31;100.00;101580.59;5053639;28;20458;-50
2021/10/08 05:59:09;;;;;;;0.30;0.20;;;;;;;5.27;100.00;101585.81;5053836;28;20525;-50
2021/10/08 06:01:36;;;;;;;0.30;0.20;;;;;;;5.29;100.00;101584.97;5053755;28;20516;-51
2021/10/08 06:04:06;;;;;;;0.30;0.20;;;;;;;5.40;100.00;101585.13;5053667;28;20546;-51
2021/10/08 06:06:34;;;;;;;0.30;0.20;;;;;;;5.42;100.00;101579.84;5054932;28;20451;-50
2021/10/08 06:09:02;;;;;;;0.30;0.20;;;;;;;5.61;100.00;101590.66;5055089;28;20955;-50
2021/10/08 06:11:29;;;;;;;0.30;0.20;;;;;;;5.53;100.00;101588.78;5054436;28;20860;-51
2021/10/08 06:13:57;;;;;;;0.30;0.20;;;;;;;5.64;100.00;101581.91;5054387;28;20503;-50
2021/10/08 06:16:24;;;;;;;0.30;0.20;;;;;;;5.73;100.00;101576.72;5047794;28;20455;-50
2021/10/08 06:18:51;;;;;;;0.30;0.20;;;;;;;5.81;100.00;101582.09;5048131;28;20482;-50
2021/10/08 06:21:21;;;;;;;0.30;0.20;;;;;;;5.80;100.00;101580.34;5053379;28;20483;-51
2021/10/08 06:23:47;;;;;;;0.30;0.20;;;;;;;5.94;100.00;101581.41;5053311;28;20997;-51
2021/10/08 06:26:14;;;;;;;0.30;0.20;;;;;;;6.02;100.00;101574.44;5053658;28;20470;-51
2021/10/08 06:28:41;;;;;;;0.30;0.20;;;;;;;6.17;100.00;101587.84;5052995;28;20453;-51
2021/10/08 06:31:08;;;;;;;0.30;0.20;;;;;;;6.17;100.00;101584.31;5053506;28;20451;-51
2021/10/08 06:33:35;;;;;;;0.30;0.20;;;;;;;6.18;100.00;101584.31;5053078;28;20498;-51
2021/10/08 06:36:03;;;;;;;0.60;0.60;;;;;;;6.30;100.00;101590.56;5052908;28;20979;-51
2021/10/08 06:38:30;;;;;;;0.30;0.20;;;;;;;6.42;100.00;101586.28;5052982;28;20866;-51
2021/10/08 06:40:57;;;;;;;0.30;0.20;;;;;;;6.63;100.00;101590.00;5052940;28;20487;-51
2021/10/08 06:43:24;;;;;;;0.30;0.20;;;;;;;6.65;100.00;101593.53;5053274;28;20956;-53
2021/10/08 06:45:51;;;;;;;0.40;0.30;;;;;;;6.70;100.00;101597.09;5052886;28;20970;-53
2021/10/08 06:48:18;;;;;;;0.30;0.20;;;;;;;6.82;100.00;101592.81;5049818;28;20446;-52
2021/10/08 06:50:45;;;;;;;0.30;0.20;;;;;;;6.91;100.00;101593.75;5052477;28;20450;-53
2021/10/08 06:53:12;;;;;;;0.30;0.20;;;;;;;7.01;100.00;101600.88;5052485;28;20470;-52
2021/10/08 06:55:39;;;;;;;0.30;0.20;;;;;;;7.15;100.00;101591.28;5052592;28;20451;-51
2021/10/08 06:58:06;;;;;;;3.83;1.73;;;;;;;7.19;100.00;101590.44;5052466;28;20455;-52
2021/10/08 07:00:33;;;;;;;1.07;0.73;;;;;;;7.27;100.00;101593.13;5052784;28;20833;-52
2021/10/08 07:03:02;;;;;;;0.30;0.20;;;;;;;7.34;100.00;101587.88;5052553;28;20482;-53
2021/10/08 07:05:29;;;;;;;0.30;0.20;;;;;;;7.44;100.00;101583.53;5052603;28;20482;-53
2021/10/08 07:07:55;;;;;;;0.30;0.20;;;;;;;7.53;100.00;101583.53;5052372;28;20501;-53
2021/10/08 07:10:23;;;;;;;0.30;0.20;;;;;;;7.54;100.00;101589.72;5052935;28;20450;-53
2021/10/08 07:12:50;;;;;;;0.30;0.20;;;;;;;7.56;100.00;101590.63;5052242;28;20466;-53
2021/10/08 07:15:20;;;;;;;0.30;0.20;;;;;;;7.72;100.00;101595.09;5052411;28;20814;-53
2021/10/08 07:17:50;;;;;;;1.00;0.87;;;;;;;7.80;100.00;101598.66;5040358;28;20451;-53
2021/10/08 07:20:23;;;;;;;0.30;0.20;;;;;;;7.90;100.00;101594.28;5052426;28;20548;-52
2021/10/08 07:22:51;;;;;;;4.33;1.60;;;;;;;8.07;100.00;101596.97;5052216;28;20493;-52
2021/10/08 07:25:18;;;;;;;0.60;0.60;;;;;;;8.21;100.00;101593.47;5052035;28;20939;-53
2021/10/08 07:27:46;;;;;;;0.30;0.20;;;;;;;8.32;100.00;101585.56;5052352;28;20481;-53
2021/10/08 07:30:15;;;;;;;0.30;0.20;;;;;;;8.47;100.00;101587.38;5052067;28;20450;-53
2021/10/08 07:32:44;;;;;;;0.30;0.20;;;;;;;8.53;100.00;101587.41;5052250;28;20474;-53
2021/10/08 07:35:11;;;;;;;0.30;0.20;;;;;;;8.54;100.00;101595.34;5052465;28;20454;-53
2021/10/08 07:37:38;;;;;;;0.30;0.20;;;;;;;8.72;100.00;101590.94;5051961;28;20451;-53
2021/10/08 07:40:07;;;;;;;0.30;0.20;;;;;;;8.76;100.00;101598.88;5038787;28;20499;-53
2021/10/08 07:42:35;;;;;;;0.80;0.80;;;;;;;8.96;100.00;101590.03;5051816;28;20845;-54
2021/10/08 07:45:04;;;;;;;0.40;0.30;;;;;;;8.90;100.00;101593.56;5052079;28;20993;-53
2021/10/08 07:47:31;;;;;;;0.40;0.40;;;;;;;8.98;100.00;101599.75;5048894;28;21015;-52
2021/10/08 07:49:58;;;;;;;0.30;0.20;;;;;;;9.24;100.00;101604.16;5051823;28;20474;-51
2021/10/08 07:52:26;;;;;;;0.30;0.20;;;;;;;9.13;100.00;101605.03;5051779;28;20454;-51
2021/10/08 07:54:52;;;;;;;0.30;0.20;;;;;;;9.16;100.00;101599.72;5051804;28;20467;-52
2021/10/08 07:57:19;;;;;;;0.30;0.20;;;;;;;9.26;100.00;101605.91;5052143;28;20512;-51
2021/10/08 07:59:46;;;;;;;0.30;0.20;;;;;;;9.12;100.00;101605.94;5051670;28;20486;-51
2021/10/08 08:02:13;;;;;;;0.30;0.23;;;;;;;9.24;100.00;101605.03;5052958;28;20489;-51
2021/10/08 08:04:40;;;;;;;0.40;0.37;;;;;;;9.53;100.00;101601.41;5055574;28;20481;-51
2021/10/08 08:07:07;;;;;;;0.30;0.20;;;;;;;9.71;100.00;101604.88;5055845;28;20508;-51
2021/10/08 08:09:34;;;;;;;0.40;0.30;;;;;;;9.76;100.00;101604.88;5055738;28;20450;-51
2021/10/08 08:12:02;;;;;;;0.40;0.30;;;;;;;9.86;100.00;101603.03;5049300;28;20510;-50
2021/10/08 08:14:29;;;;;;;0.60;0.60;;;;;;;9.95;100.00;101605.66;5040805;28;20470;-50
2021/10/08 08:16:55;;;;;;;0.80;0.77;;;;;;;10.18;100.00;101610.88;5044880;28;20463;-51
2021/10/08 08:19:23;;;;;;;0.50;0.50;;;;;;;10.39;100.00;101603.66;5054631;28;20493;-51
2021/10/08 08:21:50;;;;;;;0.40;0.30;;;;;;;10.39;100.00;101603.66;5055743;28;20474;-52
2021/10/08 08:24:17;;;;;;;0.30;0.20;;;;;;;10.58;100.00;101600.91;5055637;28;20474;-51
2021/10/08 08:26:44;;;;;;;0.30;0.20;;;;;;;10.86;100.00;101599.78;5055447;28;20486;-51
2021/10/08 08:29:11;;;;;;;0.93;0.93;;;;;;;10.91;100.00;101597.94;5055466;28;20529;-51
2021/10/08 08:31:38;;;;;;;0.30;0.20;;;;;;;11.38;100.00;101595.72;5055325;28;20501;-51
2021/10/08 08:34:04;;;;;;;0.40;0.30;;;;;;;11.50;100.00;101593.78;5055500;28;20848;-51
2021/10/08 08:36:32;;;;;;;0.30;0.20;;;;;;;11.29;100.00;101591.38;5055266;28;21019;-50
2021/10/08 08:39:04;;;;;;;0.30;0.20;;;;;;;11.47;100.00;101592.94;5055269;28;20939;-51
2021/10/08 08:41:31;;;;;;;0.30;0.20;;;;;;;11.66;100.00;101590.97;5055152;28;20490;-52
2021/10/08 08:44:00;;;;;;;0.40;0.40;;;;;;;11.78;100.00;101590.78;5055131;28;20478;-51
2021/10/08 08:46:28;;;;;;;0.30;0.20;;;;;;;11.93;100.00;101582.66;5051927;28;20455;-51
2021/10/08 08:48:56;;;;;;;0.30;0.20;;;;;;;12.18;100.00;101583.19;5055173;28;20454;-51
2021/10/08 08:51:25;;;;;;;0.30;0.20;;;;;;;12.27;100.00;101583.06;5054993;28;20447;-52
2021/10/08 08:53:54;;;;;;;4.53;0.67;;;;;;;12.50;100.00;101581.84;5054818;28;20892;-51
2021/10/08 08:56:21;;;;;;;0.33;0.23;;;;;;;12.67;100.00;101574.44;5054859;28;20951;-52
2021/10/08 08:59:08;;;;;;;0.70;0.70;;;;;;;12.68;100.00;101574.41;5054782;28;20455;-52
2021/10/08 09:01:56;;;;;;;0.30;0.20;;;;;;;12.71;100.00;101570.81;5054943;28;20510;-52
2021/10/08 09:04:27;;;;;;;0.40;0.30;;;;;;;12.84;100.00;101572.34;5054617;28;20479;-52
2021/10/08 09:06:56;;;;;;;0.30;0.20;;;;;;;13.07;100.00;101582.63;5054790;28;20946;-51
2021/10/08 09:09:25;;;;;;;1.70;1.43;;;;;;;13.13;100.00;101571.84;5054761;28;20450;-51
2021/10/08 09:11:55;;;;;;;0.77;0.77;;;;;;;13.05;100.00;101572.00;5054654;28;20446;-52
2021/10/08 09:14:25;;;;;;;0.30;0.20;;;;;;;13.20;100.00;101562.84;5053895;28;20549;-52
2021/10/08 09:17:15;;;;;;;0.30;0.20;;;;;;;13.26;100.00;101565.38;5044211;28;20494;-51
2021/10/08 09:19:52;;;;;;;0.40;0.30;;;;;;;13.60;100.00;101559.41;5030645;28;20530;-52
2021/10/08 09:22:49;;;;;;;0.30;0.20;;;;;;;13.81;100.00;101558.94;5054581;28;20442;-52
2021/10/08 09:25:23;;;;;;;0.30;0.20;;;;;;;14.03;100.00;101550.44;5054445;28;20521;-51
2021/10/08 09:27:53;;;;;;;0.50;0.50;;;;;;;14.21;100.00;101548.22;5054412;28;20889;-51
2021/10/08 09:30:26;;;;;;;0.30;0.20;;;;;;;14.15;100.00;101545.69;5054826;28;20451;-52
2021/10/08 09:32:55;;;;;;;8.60;2.53;;;;;;;14.43;100.00;101545.06;5054162;28;20487;-52
2021/10/08 09:35:25;;;;;;;0.40;0.23;;;;;;;14.64;100.00;101539.19;5053896;28;20450;-52
2021/10/08 09:38:02;;;;;;;0.30;0.20;;;;;;;14.82;100.00;101544.09;5054107;28;20492;-52
2021/10/08 09:40:35;;;;;;;0.30;0.20;;;;;;;14.96;100.00;101542.84;5053771;28;20860;-51
2021/10/08 09:43:04;;;;;;;0.30;0.20;;;;;;;15.11;100.00;101521.88;5054147;28;20489;-52
2021/10/08 09:45:47;;;;;;;0.30;0.20;;;;;;;15.18;98.54;101527.06;5054135;28;20443;-51
2021/10/08 09:48:14;;;;;;;0.63;0.60;;;;;;;15.33;98.60;101530.19;5049772;28;20961;-51
2021/10/08 09:50:59;;;;;;;0.30;0.20;;;;;;;15.56;93.82;101528.66;5052598;28;20443;-52
2021/10/08 09:53:27;;;;;;;0.30;0.30;;;;;;;15.93;89.02;101523.97;5053666;28;21033;-52
2021/10/08 09:55:55;;;;;;;0.40;0.30;;;;;;;16.06;87.89;101523.59;5053973;28;20454;-52
2021/10/08 09:58:22;;;;;;;0.30;0.20;;;;;;;16.29;89.07;101521.91;5054201;28;20478;-51
2021/10/08 10:00:59;;;;;;;0.40;0.20;;;;;;;16.31;86.81;101511.16;5053773;28;20518;-51
2021/10/08 10:03:28;;;;;;;0.50;0.40;;;;;;;16.37;86.68;101520.81;5053463;28;20886;-51
2021/10/08 10:05:59;;;;;;;0.50;0.50;;;;;;;16.56;84.97;101521.94;5053770;28;20459;-51
2021/10/08 10:08:26;;;;;;;0.30;0.20;;;;;;;16.74;85.28;101507.06;5053707;28;20489;-51
2021/10/08 10:10:55;;;;;;;0.40;0.20;;;;;;;16.61;84.90;101509.25;5053675;28;21038;-51
2021/10/08 10:13:22;;;;;;;0.40;0.27;;;;;;;16.85;84.69;101508.44;5053601;28;20524;-52
2021/10/08 10:15:50;;;;;;;0.40;0.20;;;;;;;16.87;83.77;101514.66;5051537;28;20533;-51
2021/10/08 10:18:19;;;;;;;0.50;0.50;;;;;;;16.99;83.06;101509.75;5043428;28;20504;-51
2021/10/08 10:20:49;;;;;;;0.40;0.20;;;;;;;17.08;84.30;101515.69;5051911;28;20525;-52
2021/10/08 10:23:18;;;;;;;0.40;0.20;;;;;;;17.03;83.92;101506.91;5053379;28;20840;-52
2021/10/08 10:25:47;;;;;;;0.40;0.40;;;;;;;17.13;84.82;101512.81;5052402;28;20458;-51
2021/10/08 10:28:15;;;;;;;0.40;0.30;;;;;;;17.21;84.11;101512.56;5053284;28;20455;-51
2021/10/08 10:30:46;;;;;;;0.40;0.20;;;;;;;17.41;84.36;101515.41;5053098;28;20500;-51
2021/10/08 10:33:13;;;;;;;0.40;0.20;;;;;;;17.27;83.46;101513.22;5053213;28;20477;-52
2021/10/08 10:35:56;;;;;;;0.40;0.20;;;;;;;17.43;84.85;101505.47;5053411;28;20481;-52
2021/10/08 10:38:26;;;;;;;0.40;0.20;;;;;;;17.44;84.20;101515.28;5053121;28;20447;-52
2021/10/08 10:41:20;;;;;;;0.40;0.20;;;;;;;17.42;82.47;101506.41;5053014;28;20514;-52
2021/10/08 10:43:50;;;;;;;0.40;0.20;;;;;;;17.49;82.77;101515.97;5052823;28;20452;-52
2021/10/08 10:46:40;;;;;;;0.40;0.20;;;;;;;17.59;83.41;101512.00;5048915;28;20434;-52
2021/10/08 10:52:01;;;;;;;0.40;0.30;;;;;;;17.59;82.18;101520.09;5052940;28;20446;-51
2021/10/08 10:54:55;;;;;;;0.40;0.20;;;;;;;17.48;81.68;101523.16;5052552;28;21018;-52
2021/10/08 10:57:22;;;;;;;0.40;0.30;;;;;;;17.68;83.56;101506.31;5052792;28;20454;-52
2021/10/08 10:59:49;;;;;;;0.33;0.20;;;;;;;17.86;83.03;101515.50;5051516;28;20502;-52
2021/10/08 11:02:25;;;;;;;0.40;0.30;;;;;;;17.91;83.42;101496.47;5053703;28;20479;-51
2021/10/08 11:05:10;;;;;;;0.50;0.50;;;;;;;17.80;80.31;101496.00;5052592;28;20454;-49
2021/10/08 11:08:05;;;;;;;1.00;1.00;;;;;;;17.87;80.50;101497.53;5051266;28;20451;-49
2021/10/08 11:10:32;;;;;;;3.10;2.57;;;;;;;17.96;79.88;101492.66;5052648;28;20857;-48
2021/10/08 11:13:28;;;;;;;0.40;0.20;;;;;;;18.09;80.75;101494.84;5025589;28;20471;-48
2021/10/08 11:16:02;;;;;;;0.40;0.30;;;;;;;18.14;80.53;101509.88;5048570;28;20476;-48
2021/10/08 11:18:48;;;;;;;0.57;0.50;;;;;;;18.09;78.21;101481.38;5036078;28;20546;-49
2021/10/08 11:21:28;;;;;;;0.60;0.60;;;;;;;18.28;80.95;101485.97;5027931;28;20547;-48
2021/10/08 11:24:18;;;;;;;1.23;0.83;;;;;;;18.35;77.52;101498.22;5052196;28;20481;-49
2021/10/08 11:26:57;;;;;;;0.50;0.40;;;;;;;18.33;78.38;101504.63;5052282;28;20446;-48
2021/10/08 11:29:32;;;;;;;1.13;1.03;;;;;;;18.58;78.25;101485.63;5028401;28;20796;-48
2021/10/08 11:32:05;;;;;;;0.40;0.20;;;;;;;18.20;78.26;101471.94;5051952;28;20443;-49
2021/10/08 11:34:32;;;;;;;6.20;0.70;;;;;;;18.60;79.39;101471.13;5052211;28;20854;-48
2021/10/08 11:37:00;;;;;;;0.40;0.20;;;;;;;18.40;77.80;101481.91;5051812;28;20864;-48
2021/10/08 11:39:28;;;;;;;0.40;0.30;;;;;;;18.14;78.47;101485.66;5051948;28;20482;-48